Details From ROAH - Naha
To RJOO - Osaka Intl
Flight Number -
Tags Generated
Created
Modified
Stats Distance 654 nm / 1,211 km
Max Altitude 0 ft / 0 m
Waypoints 5
Social Downloads 1
Likes 0
Share VATSIM

Download

Looking for another format? Having issues loading an existing format? Contact us
Advertisement - Login to hide

Notes

Generated

Route

ROAH AME30 TENSO SKE14 RJOO

ID Type Via Altitude Latitude Longitude Leg Dist Tot Dist Heading (true) Name
O ROAH APT - 0 ft / 0 m 26.20934˚ 127.64523˚ - 0 nm - -
AME30 FIX - 0 ft / 0 m 28.88144˚ 129.97015˚ 202 nm 202 nm 37° / 38° -
TENSO FIX - 0 ft / 0 m 32.29847˚ 132.80532˚ 252 nm 454 nm 35° / 36° -
SKE14 FIX - 0 ft / 0 m 34.56393˚ 135.17944˚ 180 nm 635 nm 41° / 42° -
O RJOO APT - 0 ft / 0 m 34.79527˚ 135.42869˚ 18 nm 654 nm 41° / 42° -

Altitude Profile

Advertisement - Login to hide

Weather


0- 5 10 15 20 25 30 35+ Temperature / ° C

Clouds and Precipitation
Forecast for 2017-12-14 12:00 UTC. Updated an hour ago

Ground ~20,000 ft ~40,000 ft Winds

ROAH

Details ICAO ROAH (OKA)
Name NAHA
Region Japan
Timezone Asia/Tokyo (UTC+9.0)
Stats Elevation 12 ft / 4 m (AMSL)
Location 26.195815° 127.645868°
Runways 1
Magnetic Variation 5.229° W

METAR

ROAH 140830Z 06008KT 020V110 9999 FEW040 18/08 Q1020 RMK 1SC040 A3013

Decode

TAF

TAF ROAH 140505Z 1406/1512 04008KT 9999 FEW035 BKN045

Decode

Departure Runways

ID Width Length Bearing (true) Bearing (mag) Surface Threshold Offset Overrun Length
18 150 ft / 46 m 9,881 ft / 3,012 m 177.59° 182.82° Asphalt 138 ft / 42 m 640 ft / 195 m
36 150 ft / 46 m 9,881 ft / 3,012 m 357.59° 2.82° Asphalt 0 ft / 0 m 509 ft / 155 m

RJOO

Details ICAO RJOO (ITM)
Name OSAKA INTL
Region Japan
Timezone Asia/Tokyo (UTC+9.0)
Stats Elevation 50 ft / 15 m (AMSL)
Location 34.785603° 135.438019°
Runways 2
Magnetic Variation 7.678° W

METAR

RJOO 140800Z 35009KT 9999 FEW025 SCT060 BKN/// 06/M03 Q1026 RMK 2CU025 3SC060 A3030

Decode

TAF

TAF RJOO 140507Z 1406/1512 34015KT 9999 FEW025 SCT045 TEMPO 1406/1408 34016G26KT BECMG 1408/1410 32005KT BECMG 1500/1503 22004KT BECMG 1509/1512 32005KT

Decode

Destination Runways

ID Width Length Bearing (true) Bearing (mag) Surface Threshold Offset Overrun Length
14L 150 ft / 46 m 5,999 ft / 1,829 m 135.13° 142.81° Asphalt 0 ft / 0 m 678 ft / 207 m
14R 200 ft / 61 m 9,846 ft / 3,001 m 135.13° 142.81° Concrete 0 ft / 0 m 240 ft / 73 m
32L 200 ft / 61 m 9,846 ft / 3,001 m 315.15° 322.83° Concrete 0 ft / 0 m 249 ft / 76 m
32R 150 ft / 46 m 5,999 ft / 1,829 m 315.14° 322.82° Asphalt 0 ft / 0 m 571 ft / 174 m

Approach Navaids

Runway Type Ident Frequency Range Bearing (true) Bearing (mag) Slope Elevation
32L Localiser ISK 110.10 MHz 18 nm / 33 km 315.13° 322.81° - 50 ft / 15 m (AMSL)
32L Glidescope ISK 110.10 MHz 10 nm / 19 km 315.14° 322.82° 3.00° 54 ft / 16 m (AMSL)

Popular Alternatives